createdAt,value
2023-05-09T00:00:37.312Z,85.80
2023-05-09T00:03:05.967Z,85.10
2023-05-09T00:05:32.846Z,85.60
2023-05-09T00:07:59.719Z,85.80
2023-05-09T00:10:27.595Z,85.90
2023-05-09T00:12:54.487Z,85.80
2023-05-09T00:15:21.360Z,85.00
2023-05-09T00:17:48.234Z,84.60
2023-05-09T00:20:15.517Z,84.40
2023-05-09T00:22:42.427Z,84.90
2023-05-09T00:25:10.896Z,86.00
2023-05-09T00:27:37.840Z,86.20
2023-05-09T00:30:05.902Z,86.30
2023-05-09T00:32:33.967Z,86.90
2023-05-09T00:35:00.828Z,86.50
2023-05-09T00:37:28.689Z,86.30
2023-05-09T00:39:55.500Z,85.70
2023-05-09T00:42:22.372Z,85.60
2023-05-09T00:44:49.163Z,85.30
2023-05-09T00:47:16.027Z,85.30
2023-05-09T00:49:43.121Z,85.10
2023-05-09T00:52:09.990Z,85.00
2023-05-09T00:54:36.903Z,85.20
2023-05-09T00:57:03.876Z,84.90
2023-05-09T00:59:30.830Z,85.20
2023-05-09T01:01:57.630Z,85.50
2023-05-09T01:04:24.906Z,85.50
2023-05-09T01:07:19.087Z,85.90
2023-05-09T01:10:12.967Z,85.70
2023-05-09T01:12:56.107Z,85.60
2023-05-09T01:15:59.558Z,86.00
2023-05-09T01:18:34.670Z,86.90
2023-05-09T01:21:11.258Z,86.50
2023-05-09T01:23:44.365Z,87.00
2023-05-09T01:26:37.436Z,87.20
2023-05-09T01:29:30.244Z,87.00
2023-05-09T01:31:58.297Z,86.70
2023-05-09T01:34:28.891Z,86.50
2023-05-09T01:37:00.669Z,86.60
2023-05-09T01:39:29.403Z,86.30
2023-05-09T01:42:00.816Z,86.20
2023-05-09T01:44:34.067Z,85.80
2023-05-09T01:47:03.364Z,86.30
2023-05-09T01:49:32.558Z,86.10
2023-05-09T01:52:03.718Z,86.60
2023-05-09T01:54:31.185Z,86.70
2023-05-09T01:56:59.695Z,86.80
2023-05-09T01:59:28.545Z,86.50
2023-05-09T02:01:56.355Z,86.20
2023-05-09T02:04:23.929Z,85.60
2023-05-09T02:06:51.832Z,85.80
2023-05-09T02:09:20.093Z,85.60
2023-05-09T02:11:47.367Z,85.20
2023-05-09T02:14:14.669Z,84.50
2023-05-09T02:16:41.993Z,84.40
2023-05-09T02:19:08.987Z,83.80
2023-05-09T02:21:36.083Z,83.30
2023-05-09T02:24:04.044Z,83.80
2023-05-09T02:26:31.387Z,84.20
2023-05-09T02:28:59.409Z,84.80
2023-05-09T02:31:28.390Z,85.60
2023-05-09T02:33:56.364Z,85.00
2023-05-09T02:36:23.956Z,85.70
2023-05-09T02:38:52.053Z,85.70
2023-05-09T02:41:18.987Z,85.50
2023-05-09T02:43:46.281Z,85.00
2023-05-09T02:46:13.226Z,84.00
2023-05-09T02:48:40.165Z,83.10
2023-05-09T02:51:07.906Z,82.00
2023-05-09T02:53:34.731Z,81.60
2023-05-09T02:56:01.584Z,80.90
2023-05-09T02:58:28.804Z,80.00
2023-05-09T03:00:55.623Z,79.40
2023-05-09T03:03:23.364Z,79.40
2023-05-09T03:05:50.311Z,80.30
2023-05-09T03:08:17.114Z,81.80
2023-05-09T03:10:43.969Z,82.40
2023-05-09T03:13:10.830Z,81.30
2023-05-09T03:15:37.735Z,80.90
2023-05-09T03:18:04.700Z,80.20
2023-05-09T03:20:31.573Z,80.30
2023-05-09T03:22:58.354Z,80.30
2023-05-09T03:25:26.403Z,79.30
2023-05-09T03:27:53.304Z,79.00
2023-05-09T03:30:20.358Z,79.50
2023-05-09T03:32:47.232Z,80.00
2023-05-09T03:35:14.145Z,79.90
2023-05-09T03:37:41.143Z,81.10
2023-05-09T03:40:08.911Z,81.40
2023-05-09T03:42:35.744Z,80.80
2023-05-09T03:45:02.585Z,80.70
2023-05-09T03:47:30.200Z,79.80
2023-05-09T03:49:57.022Z,79.50
2023-05-09T03:52:23.835Z,79.00
2023-05-09T03:54:50.783Z,78.80
2023-05-09T03:57:17.627Z,79.30
2023-05-09T03:59:44.409Z,78.30
2023-05-09T04:02:11.524Z,79.20
2023-05-09T04:04:38.328Z,78.60
2023-05-09T04:07:05.243Z,79.50
2023-05-09T04:09:32.138Z,81.20
2023-05-09T04:11:59.013Z,79.80
2023-05-09T04:14:25.808Z,78.40
2023-05-09T04:16:52.696Z,78.00
2023-05-09T04:19:19.636Z,78.40
2023-05-09T04:21:46.445Z,78.00
2023-05-09T04:24:13.258Z,76.90
2023-05-09T04:26:40.350Z,77.50
2023-05-09T04:29:07.336Z,77.50
2023-05-09T04:31:34.270Z,77.90
2023-05-09T04:34:01.366Z,77.60
2023-05-09T04:36:28.911Z,76.10
2023-05-09T04:38:56.192Z,76.10
2023-05-09T04:41:23.943Z,75.90
2023-05-09T04:43:51.789Z,75.70
2023-05-09T04:46:18.652Z,75.40
2023-05-09T04:48:45.572Z,74.40
2023-05-09T04:51:12.466Z,73.40
2023-05-09T04:53:39.244Z,74.20
2023-05-09T04:56:06.242Z,74.50
2023-05-09T04:58:34.461Z,73.70
2023-05-09T05:01:01.266Z,72.30
2023-05-09T05:03:28.234Z,73.00
2023-05-09T05:05:55.085Z,73.40
2023-05-09T05:08:21.933Z,72.30
2023-05-09T05:10:49.585Z,71.50
2023-05-09T05:13:16.916Z,71.10
2023-05-09T05:15:43.920Z,70.80
2023-05-09T05:18:10.923Z,71.20
2023-05-09T05:20:39.959Z,71.00
2023-05-09T05:23:07.031Z,71.30
2023-05-09T05:25:34.120Z,70.90
2023-05-09T05:28:01.040Z,70.50
2023-05-09T05:30:28.032Z,70.80
2023-05-09T05:32:55.052Z,71.00
2023-05-09T05:35:23.384Z,70.00
2023-05-09T05:37:50.543Z,70.50
2023-05-09T05:40:17.424Z,69.20
2023-05-09T05:42:44.382Z,69.80
2023-05-09T05:45:11.535Z,69.60
2023-05-09T05:47:38.403Z,69.70
2023-05-09T05:50:08.212Z,68.80
2023-05-09T05:52:35.102Z,68.30
2023-05-09T05:55:02.020Z,70.10
2023-05-09T05:57:29.930Z,70.70
2023-05-09T05:59:56.829Z,69.10
2023-05-09T06:02:23.765Z,68.60
2023-05-09T06:04:50.617Z,69.20
2023-05-09T06:07:17.517Z,68.70
2023-05-09T06:09:44.377Z,68.00
2023-05-09T06:12:11.918Z,67.90
2023-05-09T06:14:38.696Z,68.90
2023-05-09T06:17:05.673Z,68.30
2023-05-09T06:19:32.475Z,68.90
2023-05-09T06:21:59.317Z,69.30
2023-05-09T06:24:35.894Z,67.30
2023-05-09T06:27:04.228Z,68.40
2023-05-09T06:29:31.062Z,67.60
2023-05-09T06:31:57.881Z,67.20
2023-05-09T06:34:24.731Z,67.70
2023-05-09T06:36:51.555Z,67.60
2023-05-09T06:39:18.405Z,68.00
2023-05-09T06:41:45.224Z,67.30
2023-05-09T06:44:11.990Z,67.10
2023-05-09T06:46:38.876Z,66.50
2023-05-09T06:49:08.581Z,66.90
2023-05-09T06:51:35.379Z,65.70
2023-05-09T06:54:02.156Z,65.70
2023-05-09T06:56:29.385Z,66.40
2023-05-09T06:58:56.222Z,67.70
2023-05-09T07:01:23.113Z,66.70
2023-05-09T07:03:49.892Z,64.10
2023-05-09T07:06:16.687Z,63.30
2023-05-09T07:08:43.489Z,64.70
2023-05-09T07:11:10.275Z,64.70
2023-05-09T07:13:37.162Z,62.50
2023-05-09T07:16:04.221Z,62.80
2023-05-09T07:18:31.072Z,64.80
2023-05-09T07:20:58.376Z,64.50
2023-05-09T07:23:26.077Z,64.10
2023-05-09T07:25:59.141Z,62.70
2023-05-09T07:28:26.334Z,64.40
2023-05-09T07:30:56.636Z,62.40
2023-05-09T07:33:23.791Z,61.20
2023-05-09T07:35:50.869Z,60.50
2023-05-09T07:38:17.684Z,61.20
2023-05-09T07:40:44.550Z,60.20
2023-05-09T07:43:11.392Z,59.70
2023-05-09T07:45:38.193Z,60.30
2023-05-09T07:48:05.595Z,63.80
2023-05-09T07:50:32.511Z,60.80
2023-05-09T07:53:00.069Z,59.00
2023-05-09T07:55:26.928Z,59.80
2023-05-09T07:57:53.699Z,59.40
2023-05-09T08:00:23.777Z,61.80
2023-05-09T08:02:51.613Z,61.40
2023-05-09T08:05:18.938Z,59.80
2023-05-09T08:07:46.418Z,63.60
2023-05-09T08:10:13.450Z,60.50
2023-05-09T08:12:40.379Z,59.80
2023-05-09T08:15:07.668Z,61.10
2023-05-09T08:17:34.585Z,59.40
2023-05-09T08:20:01.545Z,57.30
2023-05-09T08:22:28.508Z,59.70
2023-05-09T08:24:55.316Z,58.30
2023-05-09T08:27:22.142Z,58.10
2023-05-09T08:29:49.037Z,56.20
2023-05-09T08:32:15.830Z,55.90
2023-05-09T08:34:42.733Z,53.40
2023-05-09T08:37:09.568Z,58.50
2023-05-09T08:39:36.426Z,57.50
2023-05-09T08:42:03.452Z,55.70
2023-05-09T08:44:31.411Z,53.60
2023-05-09T08:47:03.365Z,52.60
2023-05-09T08:49:30.805Z,53.40
2023-05-09T08:51:57.948Z,54.10
2023-05-09T08:54:25.142Z,53.80
2023-05-09T08:56:52.200Z,54.00
2023-05-09T08:59:19.661Z,53.00
2023-05-09T09:01:47.105Z,52.80
2023-05-09T09:04:14.054Z,54.40
2023-05-09T09:06:41.424Z,51.40
2023-05-09T09:09:09.117Z,54.50
2023-05-09T09:11:38.895Z,53.10
2023-05-09T09:14:13.203Z,54.70
2023-05-09T09:16:42.756Z,52.10
2023-05-09T09:19:13.516Z,51.10
2023-05-09T09:21:43.239Z,55.80
2023-05-09T09:24:13.452Z,52.80
2023-05-09T09:26:48.591Z,54.50
2023-05-09T09:29:18.590Z,58.20
2023-05-09T09:31:46.726Z,57.70
2023-05-09T09:34:20.267Z,54.40
2023-05-09T09:36:48.380Z,58.80
2023-05-09T09:39:15.854Z,61.30
2023-05-09T09:41:44.636Z,59.20
2023-05-09T09:44:16.913Z,58.70
2023-05-09T09:46:52.167Z,52.30
2023-05-09T09:49:24.518Z,58.60
2023-05-09T09:51:58.498Z,56.40
2023-05-09T09:54:28.784Z,56.30
2023-05-09T09:56:56.921Z,56.40
2023-05-09T09:59:25.779Z,52.10
2023-05-09T10:01:58.241Z,54.10
2023-05-09T10:04:26.700Z,56.60
2023-05-09T10:07:03.660Z,54.80
2023-05-09T10:09:31.463Z,51.30
2023-05-09T10:12:03.298Z,54.70
2023-05-09T10:14:34.846Z,52.60
2023-05-09T10:17:03.771Z,49.70
2023-05-09T10:19:32.127Z,50.50
2023-05-09T10:22:01.772Z,52.30
2023-05-09T10:24:46.977Z,53.70
2023-05-09T10:27:17.652Z,53.50
2023-05-09T10:29:54.148Z,51.40
2023-05-09T10:32:46.265Z,51.00
2023-05-09T10:35:17.082Z,53.20
2023-05-09T10:37:45.720Z,52.10
2023-05-09T10:40:15.731Z,50.30
2023-05-09T10:42:43.891Z,51.20
2023-05-09T10:45:12.779Z,49.40
2023-05-09T10:47:44.343Z,49.90
2023-05-09T10:50:13.125Z,49.50
2023-05-09T10:53:04.874Z,48.80
2023-05-09T10:55:55.416Z,48.90
2023-05-09T10:58:31.338Z,52.70
2023-05-09T11:01:00.556Z,47.40
2023-05-09T11:03:29.889Z,52.30
2023-05-09T11:05:58.798Z,48.30
2023-05-09T11:08:33.227Z,49.40
2023-05-09T11:11:06.846Z,50.10
2023-05-09T11:13:40.616Z,46.10
2023-05-09T11:16:11.997Z,44.90
2023-05-09T11:18:52.755Z,45.40
2023-05-09T11:21:20.975Z,41.00
2023-05-09T11:23:48.604Z,46.50
2023-05-09T11:26:16.117Z,47.60
2023-05-09T11:28:53.236Z,44.10
2023-05-09T11:31:20.537Z,47.00
2023-05-09T11:33:55.158Z,44.40
2023-05-09T11:36:33.276Z,46.90
2023-05-09T11:39:03.227Z,43.50
2023-05-09T11:41:31.450Z,43.20
2023-05-09T11:44:00.366Z,42.20
2023-05-09T11:46:27.616Z,44.00
2023-05-09T11:48:54.584Z,44.20
2023-05-09T11:51:21.908Z,43.20
2023-05-09T11:53:54.067Z,43.30
2023-05-09T11:56:23.053Z,37.90
2023-05-09T11:58:51.684Z,42.60
2023-05-09T12:01:18.580Z,44.40
2023-05-09T12:03:45.994Z,43.80
2023-05-09T12:06:17.731Z,40.20
2023-05-09T12:08:46.741Z,42.50
2023-05-09T12:11:15.154Z,45.40
2023-05-09T12:13:49.956Z,40.90
2023-05-09T12:16:18.373Z,41.90
2023-05-09T12:18:51.527Z,41.80
2023-05-09T12:21:19.432Z,37.30
2023-05-09T12:23:49.868Z,39.70
2023-05-09T12:26:18.265Z,39.70
2023-05-09T12:28:48.484Z,38.10
2023-05-09T12:31:16.187Z,38.80
2023-05-09T12:33:43.116Z,33.10
2023-05-09T12:36:15.924Z,36.40
2023-05-09T12:38:55.615Z,34.60
2023-05-09T12:44:01.237Z,34.20
2023-05-09T12:46:28.441Z,35.00
2023-05-09T12:48:55.660Z,33.30
2023-05-09T12:51:23.077Z,33.30
2023-05-09T12:53:50.126Z,31.10
2023-05-09T12:56:20.154Z,29.60
2023-05-09T12:58:49.549Z,33.30
2023-05-09T13:01:16.536Z,31.80
2023-05-09T13:04:04.631Z,29.90
2023-05-09T13:06:33.063Z,31.60
2023-05-09T13:09:02.765Z,31.20
2023-05-09T13:11:33.053Z,29.50
2023-05-09T13:14:00.415Z,31.10
2023-05-09T13:16:27.828Z,30.00
2023-05-09T13:18:57.274Z,30.20
2023-05-09T13:21:24.064Z,29.40
2023-05-09T13:23:54.443Z,28.40
2023-05-09T13:26:28.248Z,29.60
2023-05-09T13:28:56.389Z,29.40
2023-05-09T13:31:25.129Z,27.30
2023-05-09T13:33:54.772Z,27.90
2023-05-09T13:36:21.679Z,27.50
2023-05-09T13:38:49.113Z,28.00
2023-05-09T13:41:22.344Z,26.00
2023-05-09T13:43:58.426Z,26.40
2023-05-09T13:46:26.689Z,27.70
2023-05-09T13:48:54.333Z,28.20
2023-05-09T13:51:23.971Z,28.60
2023-05-09T13:53:51.291Z,28.20
2023-05-09T13:56:18.190Z,28.20
2023-05-09T13:58:44.990Z,29.90
2023-05-09T14:01:11.970Z,27.20
2023-05-09T14:03:38.909Z,29.40
2023-05-09T14:06:05.875Z,30.60
2023-05-09T14:08:33.114Z,29.60
2023-05-09T14:10:59.903Z,28.60
2023-05-09T14:13:26.957Z,29.30
2023-05-09T14:15:54.059Z,28.30
2023-05-09T14:18:21.368Z,30.40
2023-05-09T14:20:48.452Z,31.20
2023-05-09T14:23:15.250Z,29.20
2023-05-09T14:25:42.317Z,29.60
2023-05-09T14:28:09.586Z,27.40
2023-05-09T14:30:36.664Z,28.70
2023-05-09T14:33:03.607Z,29.70
2023-05-09T14:35:33.770Z,30.00
2023-05-09T14:38:01.278Z,29.30
2023-05-09T14:40:31.855Z,29.90
2023-05-09T14:42:59.303Z,29.00
2023-05-09T14:45:26.502Z,28.80
2023-05-09T14:47:53.698Z,27.30
2023-05-09T14:50:21.545Z,32.40
2023-05-09T14:52:50.762Z,32.30
2023-05-09T14:55:18.445Z,30.10
2023-05-09T14:57:45.887Z,30.70
2023-05-09T15:00:21.332Z,32.20
2023-05-09T15:02:49.387Z,33.10
2023-05-09T15:05:16.723Z,33.10
2023-05-09T15:07:43.518Z,32.50
2023-05-09T15:10:10.722Z,32.20
2023-05-09T15:12:37.659Z,31.60
2023-05-09T15:15:18.737Z,31.50
2023-05-09T15:17:46.307Z,30.20
2023-05-09T15:20:19.976Z,30.70
2023-05-09T15:22:50.181Z,31.10
2023-05-09T15:25:17.421Z,29.90
2023-05-09T15:27:44.312Z,31.60
2023-05-09T15:30:12.193Z,31.50
2023-05-09T15:32:42.313Z,29.10
2023-05-09T15:35:09.378Z,29.00
2023-05-09T15:37:36.459Z,29.30
2023-05-09T15:40:03.935Z,30.10
2023-05-09T15:42:31.264Z,30.30
2023-05-09T15:44:58.032Z,31.50
2023-05-09T15:47:24.880Z,29.90
2023-05-09T15:49:51.712Z,30.40
2023-05-09T15:52:18.604Z,29.00
2023-05-09T15:54:45.522Z,31.20
2023-05-09T15:57:16.718Z,30.60
2023-05-09T15:59:43.497Z,29.10
2023-05-09T16:02:12.187Z,29.30
2023-05-09T16:04:39.113Z,27.90
2023-05-09T16:07:05.967Z,28.90
2023-05-09T16:09:32.928Z,28.70
2023-05-09T16:12:00.153Z,29.40
2023-05-09T16:14:27.545Z,29.80
2023-05-09T16:16:54.535Z,28.50
2023-05-09T16:19:22.133Z,29.60
2023-05-09T16:21:49.397Z,28.90
2023-05-09T16:24:16.352Z,30.30
2023-05-09T16:26:43.147Z,31.70
2023-05-09T16:29:10.590Z,30.10
2023-05-09T16:31:37.646Z,30.80
2023-05-09T16:34:04.585Z,29.70
2023-05-09T16:36:32.710Z,29.90
2023-05-09T16:38:59.610Z,30.10
2023-05-09T16:41:27.064Z,31.70
2023-05-09T16:43:54.002Z,32.60
2023-05-09T16:46:20.954Z,32.00
2023-05-09T16:48:47.796Z,31.10
2023-05-09T16:51:14.588Z,31.10
2023-05-09T16:53:41.454Z,31.20
2023-05-09T16:56:10.897Z,32.10
2023-05-09T16:58:38.026Z,31.30
2023-05-09T17:01:05.545Z,32.90
2023-05-09T17:03:32.370Z,32.80
2023-05-09T17:05:59.212Z,33.60
2023-05-09T17:08:26.009Z,34.00
2023-05-09T17:10:52.848Z,35.90
2023-05-09T17:13:19.710Z,36.20
2023-05-09T17:15:46.737Z,37.50
2023-05-09T17:18:19.353Z,39.10
2023-05-09T17:20:52.667Z,41.30
2023-05-09T17:23:25.786Z,39.50
2023-05-09T17:25:52.651Z,40.70
2023-05-09T17:28:19.464Z,40.20
2023-05-09T17:30:46.662Z,40.90
2023-05-09T17:33:13.501Z,40.60
2023-05-09T17:35:40.516Z,42.20
2023-05-09T17:38:07.294Z,42.50
2023-05-09T17:40:34.152Z,41.20
2023-05-09T17:43:00.970Z,42.40
2023-05-09T17:45:27.941Z,44.00
2023-05-09T17:47:54.846Z,42.70
2023-05-09T17:50:21.704Z,42.60
2023-05-09T17:52:49.502Z,42.80
2023-05-09T17:55:16.378Z,42.30
2023-05-09T17:57:43.360Z,41.40
2023-05-09T18:00:10.699Z,41.80
2023-05-09T18:02:37.868Z,42.60
2023-05-09T18:05:05.749Z,42.40
2023-05-09T18:07:33.754Z,42.20
2023-05-09T18:10:00.681Z,43.30
2023-05-09T18:12:31.130Z,45.20
2023-05-09T18:14:57.958Z,48.70
2023-05-09T18:17:24.821Z,49.70
2023-05-09T18:19:51.655Z,50.90
2023-05-09T18:22:25.172Z,53.10
2023-05-09T18:24:53.442Z,51.80
2023-05-09T18:27:21.615Z,50.40
2023-05-09T18:29:48.908Z,53.70
2023-05-09T18:32:17.426Z,57.40
2023-05-09T18:34:44.244Z,59.90
2023-05-09T18:37:12.526Z,57.30
2023-05-09T18:39:39.331Z,58.70
2023-05-09T18:42:06.516Z,61.00
2023-05-09T18:44:33.514Z,58.70
2023-05-09T18:47:00.388Z,58.20
2023-05-09T18:49:27.386Z,56.10
2023-05-09T18:51:54.992Z,58.60
2023-05-09T18:54:21.828Z,57.90
2023-05-09T18:56:49.563Z,58.60
2023-05-09T18:59:17.255Z,61.10
2023-05-09T19:01:44.325Z,62.90
2023-05-09T19:04:11.642Z,60.40
2023-05-09T19:06:38.462Z,59.70
2023-05-09T19:09:05.612Z,64.20
2023-05-09T19:11:32.460Z,65.10
2023-05-09T19:13:59.390Z,64.50
2023-05-09T19:16:26.646Z,64.20
2023-05-09T19:18:57.548Z,65.00
2023-05-09T19:21:25.446Z,65.20
2023-05-09T19:23:52.578Z,64.80
2023-05-09T19:26:19.952Z,65.40
2023-05-09T19:28:47.281Z,67.10
2023-05-09T19:31:15.340Z,68.10
2023-05-09T19:33:45.629Z,68.30
2023-05-09T19:36:14.949Z,68.20
2023-05-09T19:38:43.168Z,66.20
2023-05-09T19:41:13.880Z,68.10
2023-05-09T19:43:41.004Z,67.40
2023-05-09T19:46:08.122Z,64.80
2023-05-09T19:48:35.861Z,65.40
2023-05-09T19:51:02.806Z,66.90
2023-05-09T19:53:29.634Z,68.50
2023-05-09T19:55:57.813Z,70.20
2023-05-09T19:58:24.640Z,70.70
2023-05-09T20:00:51.504Z,69.70
2023-05-09T20:03:18.381Z,69.70
2023-05-09T20:05:45.282Z,68.70
2023-05-09T20:08:12.044Z,71.70
2023-05-09T20:10:38.884Z,72.40
2023-05-09T20:13:06.754Z,70.30
2023-05-09T20:15:33.799Z,69.20
2023-05-09T20:18:03.569Z,69.60
2023-05-09T20:20:32.256Z,70.00
2023-05-09T20:22:59.136Z,70.20
2023-05-09T20:25:26.079Z,69.00
2023-05-09T20:27:52.910Z,71.60
2023-05-09T20:30:21.050Z,72.30
2023-05-09T20:32:49.684Z,72.10
2023-05-09T20:35:16.533Z,72.00
2023-05-09T20:37:43.368Z,71.20
2023-05-09T20:40:10.427Z,71.60
2023-05-09T20:42:37.720Z,73.20
2023-05-09T20:45:05.357Z,72.90
2023-05-09T20:47:32.308Z,74.10
2023-05-09T20:49:59.162Z,72.30
2023-05-09T20:52:26.069Z,73.10
2023-05-09T20:54:52.862Z,73.70
2023-05-09T20:57:19.697Z,72.80
2023-05-09T20:59:46.509Z,73.10
2023-05-09T21:02:13.664Z,72.30
2023-05-09T21:04:40.512Z,74.10
2023-05-09T21:07:07.411Z,74.60
2023-05-09T21:09:34.219Z,73.10
2023-05-09T21:12:01.271Z,73.80
2023-05-09T21:14:28.057Z,75.60
2023-05-09T21:16:57.974Z,75.70
2023-05-09T21:19:24.997Z,75.80
2023-05-09T21:21:51.810Z,75.90
2023-05-09T21:24:18.671Z,75.80
2023-05-09T21:26:45.597Z,76.70
2023-05-09T21:29:12.425Z,76.60
2023-05-09T21:31:39.329Z,78.50
2023-05-09T21:34:10.004Z,78.50
2023-05-09T21:36:38.398Z,78.90
2023-05-09T21:39:09.050Z,79.30
2023-05-09T21:41:36.945Z,79.00
2023-05-09T21:44:05.663Z,78.70
2023-05-09T21:46:33.189Z,78.00
2023-05-09T21:49:01.111Z,78.40
2023-05-09T21:51:28.564Z,78.60
2023-05-09T21:53:55.647Z,77.70
2023-05-09T21:56:22.830Z,78.00
2023-05-09T21:58:49.693Z,78.80
2023-05-09T22:01:18.431Z,78.50
2023-05-09T22:03:46.006Z,79.80
2023-05-09T22:06:13.625Z,80.60
2023-05-09T22:08:40.533Z,80.80
2023-05-09T22:11:07.734Z,81.60
2023-05-09T22:13:35.999Z,82.00
2023-05-09T22:16:03.812Z,82.30
2023-05-09T22:18:31.346Z,81.60
2023-05-09T22:20:58.863Z,81.60
2023-05-09T22:23:25.756Z,81.70
2023-05-09T22:25:52.713Z,81.40
2023-05-09T22:28:19.605Z,81.30
2023-05-09T22:30:46.613Z,81.10
2023-05-09T22:33:13.901Z,81.60
2023-05-09T22:35:40.757Z,82.80
2023-05-09T22:38:07.590Z,81.70
2023-05-09T22:40:34.604Z,82.00
2023-05-09T22:43:01.480Z,81.90
2023-05-09T22:45:28.314Z,81.60
2023-05-09T22:47:55.126Z,82.50
2023-05-09T22:50:21.936Z,82.70
2023-05-09T22:52:48.861Z,83.50
2023-05-09T22:55:15.634Z,83.00
2023-05-09T22:57:42.513Z,83.90
2023-05-09T23:00:09.948Z,83.50
2023-05-09T23:02:37.260Z,83.00
2023-05-09T23:05:04.503Z,82.30
2023-05-09T23:07:31.550Z,83.00
2023-05-09T23:09:58.586Z,83.40
2023-05-09T23:12:25.428Z,83.00
2023-05-09T23:14:52.269Z,83.30
2023-05-09T23:17:19.165Z,82.00
2023-05-09T23:19:46.177Z,81.90
2023-05-09T23:22:13.110Z,82.60
2023-05-09T23:24:39.906Z,82.00
2023-05-09T23:27:06.871Z,83.00
2023-05-09T23:29:33.672Z,81.20
2023-05-09T23:32:00.450Z,81.20
2023-05-09T23:34:27.260Z,81.90
2023-05-09T23:36:54.110Z,81.80
2023-05-09T23:39:20.883Z,81.80
2023-05-09T23:41:48.027Z,81.60
2023-05-09T23:44:15.059Z,81.40
2023-05-09T23:46:41.941Z,80.40
2023-05-09T23:49:08.783Z,81.00
2023-05-09T23:51:36.267Z,81.50
2023-05-09T23:54:03.197Z,80.50
2023-05-09T23:56:31.157Z,81.60
2023-05-09T23:58:57.978Z,81.70
